Time;durP1;ratioP1;P1;durP2;ratioP2;P2;SDS_P1;SDS_P2;PMS_P1;PMS_P2;Temp;Humidity;BMP_temperature;BMP_pressure;BME280_temperature;BME280_humidity;BME280_pressure;Samples;Min_cycle;Max_cycle;Signal;HPM_P1;HPM_P2
2021/06/09 00:02:14;;;;;;;2.37;1.17;;;;;;;17.09;64.99;97732.98;1778263;81;21009;-64
2021/06/09 00:04:41;;;;;;;1.85;1.20;;;;;;;17.07;65.90;97727.94;1778124;81;20998;-64
2021/06/09 00:07:07;;;;;;;1.75;1.20;;;;;;;17.03;65.88;97725.88;1778331;81;21050;-66
2021/06/09 00:09:34;;;;;;;1.90;1.30;;;;;;;17.00;68.30;97723.64;1778561;81;20998;-65
2021/06/09 00:12:02;;;;;;;1.10;0.90;;;;;;;16.99;65.09;97726.75;1778433;81;21022;-66
2021/06/09 00:14:29;;;;;;;2.15;1.05;;;;;;;17.00;65.72;97727.57;1778611;81;21001;-69
2021/06/09 00:16:56;;;;;;;1.52;0.95;;;;;;;16.97;64.18;97731.86;1778693;81;20986;-75
2021/06/09 00:19:27;;;;;;;2.17;1.12;;;;;;;16.96;64.47;97729.73;1778490;81;20990;-66
2021/06/09 00:21:57;;;;;;;1.27;0.95;;;;;;;16.94;64.83;97727.81;1778576;81;20973;-66
2021/06/09 00:24:24;;;;;;;1.60;1.40;;;;;;;16.93;69.21;97730.61;1778779;81;21470;-66
2021/06/09 00:26:51;;;;;;;1.45;1.22;;;;;;;16.85;68.42;97721.55;1778530;81;20994;-68
2021/06/09 00:29:21;;;;;;;1.50;1.10;;;;;;;16.84;65.52;97720.77;1778397;81;20986;-66
2021/06/09 00:31:49;;;;;;;2.02;1.20;;;;;;;16.83;65.30;97721.77;1778622;81;20962;-66
2021/06/09 00:34:16;;;;;;;2.20;1.30;;;;;;;16.82;64.71;97714.06;1778414;81;21013;-64
2021/06/09 00:36:43;;;;;;;2.12;1.30;;;;;;;16.78;66.83;97709.70;1778389;81;20974;-65
2021/06/09 00:39:11;;;;;;;2.37;1.30;;;;;;;16.75;69.60;97717.14;1778696;81;21001;-67
2021/06/09 00:41:38;;;;;;;3.60;1.67;;;;;;;16.70;68.63;97711.14;1778164;81;21057;-67
2021/06/09 00:44:06;;;;;;;1.15;1.00;;;;;;;16.69;69.16;97710.81;1778518;81;21497;-64
2021/06/09 00:46:37;;;;;;;1.12;0.95;;;;;;;16.68;68.80;97705.78;1778442;81;20994;-64
2021/06/09 00:49:05;;;;;;;1.42;1.30;;;;;;;16.68;68.00;97701.84;1778563;81;20989;-64
2021/06/09 00:51:33;;;;;;;1.27;1.07;;;;;;;16.68;67.19;97700.04;1778561;81;20974;-67
2021/06/09 00:54:04;;;;;;;1.07;0.98;;;;;;;16.71;67.95;97698.84;1778536;81;20997;-67
2021/06/09 00:56:35;;;;;;;1.87;1.02;;;;;;;16.72;68.15;97697.84;1775715;80;21035;-67
2021/06/09 00:59:05;;;;;;;3.65;1.20;;;;;;;16.69;68.36;97695.08;1775911;80;21063;-67
2021/06/09 01:01:35;;;;;;;1.87;0.95;;;;;;;16.67;69.32;97694.47;1776053;81;21023;-67
2021/06/09 01:04:04;;;;;;;1.85;1.10;;;;;;;16.66;65.74;97695.95;1776165;81;21110;-64
2021/06/09 01:06:31;;;;;;;2.72;1.17;;;;;;;16.67;65.45;97694.97;1775794;80;21103;-64
2021/06/09 01:08:58;;;;;;;1.82;1.07;;;;;;;16.66;67.80;97688.91;1775699;81;21079;-63
2021/06/09 01:11:28;;;;;;;2.70;1.20;;;;;;;16.62;67.32;97688.97;1776179;81;21085;-65
2021/06/09 01:13:55;;;;;;;2.25;1.25;;;;;;;16.60;69.23;97687.87;1776013;81;21130;-64
2021/06/09 01:16:24;;;;;;;1.45;1.15;;;;;;;16.60;67.86;97679.19;1775889;81;21555;-65
2021/06/09 01:18:52;;;;;;;1.17;0.85;;;;;;;16.59;67.64;97678.38;1776141;80;21032;-67
2021/06/09 01:21:38;;;;;;;1.50;1.27;;;;;;;16.61;67.38;97677.67;1739330;82;21062;-66
2021/06/09 01:24:06;;;;;;;2.35;1.10;;;;;;;16.60;68.65;97669.52;1740176;82;21105;-66
2021/06/09 01:26:35;;;;;;;2.00;1.27;;;;;;;16.63;68.86;97672.75;1740200;82;20994;-66
2021/06/09 01:29:05;;;;;;;1.45;1.05;;;;;;;16.65;68.12;97680.75;1740238;82;21506;-64
2021/06/09 01:31:32;;;;;;;1.32;1.22;;;;;;;16.62;69.98;97675.86;1740269;82;21463;-63
2021/06/09 01:34:08;;;;;;;2.20;1.35;;;;;;;16.60;69.96;97675.25;1739927;82;21145;-65
2021/06/09 01:36:40;;;;;;;1.25;0.90;;;;;;;16.53;70.89;97673.05;1739335;82;21038;-63
2021/06/09 01:39:15;;;;;;;2.20;1.07;;;;;;;16.60;69.76;97676.56;1739698;82;21161;-64
2021/06/09 01:41:44;;;;;;;1.70;1.12;;;;;;;16.60;69.52;97674.76;1739893;82;21011;-67
2021/06/09 01:44:12;;;;;;;1.37;1.10;;;;;;;16.64;69.28;97674.38;1740083;82;21109;-66
2021/06/09 01:46:40;;;;;;;2.62;0.90;;;;;;;16.64;69.63;97676.50;1739517;82;21061;-66
2021/06/09 01:49:10;;;;;;;1.80;1.10;;;;;;;16.65;68.69;97676.01;1739744;82;21034;-66
2021/06/09 01:51:38;;;;;;;1.30;0.95;;;;;;;16.63;69.72;97671.44;1739927;82;21558;-64
2021/06/09 01:54:08;;;;;;;2.42;0.80;;;;;;;16.63;68.63;97667.50;1740191;82;21569;-63
2021/06/09 01:56:36;;;;;;;1.52;1.07;;;;;;;16.64;68.91;97668.64;1739984;82;21490;-65
2021/06/09 01:59:16;;;;;;;1.45;0.90;;;;;;;16.63;69.60;97665.70;1740258;82;21038;-64
2021/06/09 02:01:45;;;;;;;1.80;1.10;;;;;;;16.57;69.77;97665.94;1740071;82;21049;-64
2021/06/09 02:04:13;;;;;;;1.22;0.90;;;;;;;16.51;70.52;97671.09;1739900;82;21038;-64
2021/06/09 02:06:42;;;;;;;1.20;1.10;;;;;;;16.45;70.34;97666.11;1740104;82;21140;-64
2021/06/09 02:09:12;;;;;;;1.47;0.98;;;;;;;16.39;70.81;97672.58;1739884;82;21580;-66
2021/06/09 02:11:45;;;;;;;1.27;0.95;;;;;;;16.39;70.19;97666.84;1739535;82;21057;-64
2021/06/09 02:14:13;;;;;;;2.65;1.20;;;;;;;16.40;69.16;97668.97;1740480;82;21465;-64
2021/06/09 02:16:42;;;;;;;1.40;1.12;;;;;;;16.38;69.42;97672.29;1740241;82;21113;-63
2021/06/09 02:19:10;;;;;;;1.07;0.98;;;;;;;16.36;69.51;97676.39;1740187;82;21065;-63
2021/06/09 02:21:41;;;;;;;1.70;1.20;;;;;;;16.33;70.53;97680.70;1716861;82;21014;-66
2021/06/09 02:24:09;;;;;;;1.32;1.20;;;;;;;16.27;71.76;97680.61;1715535;83;21008;-66
2021/06/09 02:26:39;;;;;;;2.00;1.10;;;;;;;16.22;71.33;97679.88;1715737;82;21033;-66
2021/06/09 02:29:08;;;;;;;1.75;1.10;;;;;;;16.22;70.83;97673.33;1715598;83;21452;-66
2021/06/09 02:31:45;;;;;;;1.25;0.93;;;;;;;16.21;70.05;97671.70;1715396;83;21088;-66
2021/06/09 02:34:20;;;;;;;2.62;1.20;;;;;;;16.21;70.82;97679.56;1715598;82;21045;-66
2021/06/09 02:36:54;;;;;;;2.12;1.30;;;;;;;16.19;69.77;97684.65;1714564;83;20994;-64
2021/06/09 02:39:23;;;;;;;1.80;1.20;;;;;;;16.16;70.66;97684.53;1716148;82;21047;-67
2021/06/09 02:41:51;;;;;;;1.85;1.37;;;;;;;16.11;71.46;97686.88;1715538;83;21081;-64
2021/06/09 02:44:18;;;;;;;1.87;1.10;;;;;;;16.04;71.64;97684.69;1716110;83;21033;-64
2021/06/09 02:46:58;;;;;;;2.15;1.10;;;;;;;15.98;72.51;97684.13;1715220;82;20994;-66
2021/06/09 02:49:28;;;;;;;1.70;1.45;;;;;;;15.94;72.90;97682.86;1717556;83;21096;-65
2021/06/09 02:52:15;;;;;;;4.08;1.30;;;;;;;15.82;73.61;97679.09;1715788;82;21029;-63
2021/06/09 02:55:01;;;;;;;1.82;1.50;;;;;;;15.75;73.85;97685.55;1716539;82;21643;-63
2021/06/09 02:57:51;;;;;;;2.80;1.40;;;;;;;15.72;73.26;97683.80;1715329;83;21073;-67
2021/06/09 03:00:26;;;;;;;1.77;1.22;;;;;;;15.66;73.01;97680.91;1716618;83;21068;-64
2021/06/09 03:03:19;;;;;;;2.58;1.30;;;;;;;15.57;74.84;97683.28;1715017;83;21041;-64
2021/06/09 03:06:03;;;;;;;1.67;1.17;;;;;;;15.48;75.83;97683.54;1735994;82;21011;-63
2021/06/09 03:09:04;;;;;;;1.87;1.32;;;;;;;15.48;73.40;97681.74;1681770;84;21041;-63
2021/06/09 03:11:53;;;;;;;3.25;1.52;;;;;;;15.46;75.80;97689.44;1715463;83;21025;-66
2021/06/09 03:17:05;;;;;;;1.50;1.20;;;;;;;15.35;75.67;97685.95;1715709;83;21560;-66
2021/06/09 03:19:46;;;;;;;3.83;1.32;;;;;;;15.35;74.71;97686.77;1715539;83;21205;-64
2021/06/09 03:22:41;;;;;;;1.67;1.27;;;;;;;15.29;76.04;97683.55;1735642;81;21044;-65
2021/06/09 03:25:11;;;;;;;3.15;1.30;;;;;;;15.30;76.53;97682.56;1693263;83;21034;-65
2021/06/09 03:27:49;;;;;;;1.98;1.42;;;;;;;15.30;75.58;97681.26;1716617;84;21025;-63
2021/06/09 03:30:17;;;;;;;1.47;1.10;;;;;;;15.30;76.22;97681.26;1716192;82;21123;-63
2021/06/09 03:33:09;;;;;;;2.27;1.30;;;;;;;15.32;75.28;97679.78;1716752;84;21022;-63
2021/06/09 03:35:56;;;;;;;2.52;1.40;;;;;;;15.35;76.10;97676.80;1716216;83;21097;-63
2021/06/09 03:38:28;;;;;;;;;;;;;;;15.39;74.96;97673.66;1719164;83;21081;-63
2021/06/09 03:41:03;;;;;;;1.75;1.05;;;;;;;15.41;75.02;97669.53;1716798;82;20443;-63
2021/06/09 03:43:34;;;;;;;3.00;1.60;;;;;;;15.44;75.59;97668.70;1716787;82;21077;-63
2021/06/09 03:46:03;;;;;;;2.00;1.52;;;;;;;15.41;76.21;97676.07;1720862;81;21133;-63
2021/06/09 03:48:31;;;;;;;4.65;1.32;;;;;;;15.39;76.31;97673.66;1722855;81;21043;-62
2021/06/09 03:51:00;;;;;;;2.17;1.32;;;;;;;15.43;75.00;97673.61;1730551;81;21096;-62
2021/06/09 03:53:28;;;;;;;1.87;1.37;;;;;;;15.48;75.72;97675.20;1723420;83;21513;-62
2021/06/09 03:55:59;;;;;;;3.75;1.52;;;;;;;15.50;75.46;97676.34;1723756;83;21042;-63
2021/06/09 03:58:29;;;;;;;1.60;1.35;;;;;;;15.54;75.60;97677.61;1723448;83;21042;-63
2021/06/09 04:00:57;;;;;;;2.77;1.72;;;;;;;15.58;74.66;97682.30;1723501;81;21068;-63
2021/06/09 04:03:25;;;;;;;2.27;1.45;;;;;;;15.65;73.87;97679.77;1723750;83;21156;-63
2021/06/09 04:05:55;;;;;;;2.67;1.27;;;;;;;15.72;73.32;97679.34;1723955;83;21056;-64
2021/06/09 04:08:22;;;;;;;9.18;1.70;;;;;;;15.76;74.87;97674.59;1723506;83;21084;-62
2021/06/09 04:10:50;;;;;;;1.30;1.15;;;;;;;15.77;75.08;97676.19;1733657;81;21136;-64
2021/06/09 04:13:17;;;;;;;1.52;1.30;;;;;;;15.80;74.01;97668.78;1760163;81;21030;-62
2021/06/09 04:15:46;;;;;;;1.80;1.20;;;;;;;15.89;73.00;97679.97;1760374;81;21061;-65
2021/06/09 04:18:15;;;;;;;3.20;0.98;;;;;;;15.99;72.64;97679.20;1760232;81;21109;-65
2021/06/09 04:20:44;;;;;;;2.25;1.62;;;;;;;16.09;71.97;97678.41;1757018;80;21026;-65
2021/06/09 04:23:11;;;;;;;2.75;1.35;;;;;;;16.19;72.04;97674.17;1750120;81;21098;-64
2021/06/09 04:25:39;;;;;;;2.30;1.57;;;;;;;16.30;72.13;97678.43;1749890;82;21090;-64
2021/06/09 04:28:09;;;;;;;3.52;1.75;;;;;;;16.40;72.17;97678.14;1734088;81;21144;-64
2021/06/09 04:30:36;;;;;;;1.85;1.42;;;;;;;16.49;72.43;97675.72;1727405;81;21029;-65
2021/06/09 04:33:07;;;;;;;3.90;1.60;;;;;;;16.55;71.01;97679.71;1732397;81;21097;-66
2021/06/09 04:35:44;;;;;;;4.65;1.47;;;;;;;16.57;71.81;97679.04;1724163;81;21029;-65
2021/06/09 04:38:18;;;;;;;1.52;1.30;;;;;;;16.61;71.71;97682.13;1732099;81;21192;-64
2021/06/09 04:40:48;;;;;;;2.83;1.25;;;;;;;16.68;71.28;97684.30;1730058;81;21073;-66
2021/06/09 04:43:17;;;;;;;2.15;1.12;;;;;;;16.78;70.55;97683.98;1713143;84;21034;-64
2021/06/09 04:45:44;;;;;;;2.35;1.30;;;;;;;16.89;70.92;97678.22;1714166;84;21002;-63
2021/06/09 04:48:13;;;;;;;3.12;2.08;;;;;;;16.99;71.31;97676.09;1713941;83;21069;-64
2021/06/09 04:50:43;;;;;;;1.82;1.20;;;;;;;17.13;70.72;97673.88;1714195;83;21018;-62
2021/06/09 04:53:11;;;;;;;4.90;2.80;;;;;;;17.29;70.74;97681.47;1748298;81;20986;-65
2021/06/09 04:55:47;;;;;;;4.47;2.42;;;;;;;17.43;69.99;97678.44;1750147;81;21034;-66
2021/06/09 04:58:16;;;;;;;;;;;;;;;17.56;68.99;97682.44;1752808;81;21045;-64
2021/06/09 05:00:46;;;;;;;6.97;3.83;;;;;;;17.63;68.53;97684.63;1750159;81;20085;-64
2021/06/09 05:03:14;;;;;;;13.25;5.80;;;;;;;17.71;68.04;97684.97;1750221;81;21026;-65
2021/06/09 05:05:41;;;;;;;5.55;3.17;;;;;;;17.77;68.08;97680.27;1750142;81;21145;-70
2021/06/09 05:08:09;;;;;;;2.20;1.70;;;;;;;17.90;68.14;97682.94;1749839;81;21126;-70
2021/06/09 05:10:39;;;;;;;2.65;1.60;;;;;;;17.98;66.91;97689.34;1750057;81;21061;-69
2021/06/09 05:13:29;;;;;;;2.85;1.55;;;;;;;18.03;66.45;97681.69;1750262;81;21408;-69
2021/06/09 05:16:13;;;;;;;2.85;1.60;;;;;;;18.06;66.13;97683.92;1750198;81;20975;-69
2021/06/09 05:18:44;;;;;;;1.82;1.40;;;;;;;18.16;65.93;97687.01;1750004;81;21115;-69
2021/06/09 05:21:12;;;;;;;3.00;1.50;;;;;;;18.25;65.70;97687.12;1752729;81;21037;-69
2021/06/09 05:23:52;;;;;;;3.70;1.67;;;;;;;18.39;64.97;97684.03;1755794;80;21014;-68
2021/06/09 05:26:20;;;;;;;3.22;1.60;;;;;;;18.46;64.92;97693.56;1755872;81;21064;-63
2021/06/09 05:28:58;;;;;;;1.60;1.30;;;;;;;18.55;64.28;97686.34;1755851;82;20994;-64
2021/06/09 05:31:28;;;;;;;1.77;1.40;;;;;;;18.62;63.87;97684.52;1755534;82;21121;-63
2021/06/09 05:33:55;;;;;;;2.10;1.22;;;;;;;18.69;63.13;97681.39;1755796;82;21045;-64
2021/06/09 05:36:23;;;;;;;1.60;1.20;;;;;;;18.76;63.02;97680.08;1755477;82;20994;-69
2021/06/09 05:38:51;;;;;;;1.70;1.30;;;;;;;18.84;61.90;97684.64;1749250;81;21014;-69
2021/06/09 05:41:18;;;;;;;1.70;1.40;;;;;;;18.88;61.62;97684.54;1735005;83;21189;-69
2021/06/09 05:43:45;;;;;;;3.30;1.40;;;;;;;18.98;62.03;97689.92;1735409;82;21134;-68
2021/06/09 05:46:12;;;;;;;1.20;1.10;;;;;;;19.08;60.63;97689.81;1735262;83;21046;-69
2021/06/09 05:48:43;;;;;;;3.10;1.40;;;;;;;19.16;59.70;97688.30;1734969;83;21077;-70
2021/06/09 05:51:13;;;;;;;4.92;1.62;;;;;;;19.26;59.35;97687.36;1735169;81;21041;-69
2021/06/09 05:54:02;;;;;;;5.20;1.35;;;;;;;19.35;59.02;97690.60;1735127;83;20982;-69
2021/06/09 05:56:29;;;;;;;5.60;3.10;;;;;;;19.47;58.89;97685.55;1720018;82;21061;-66
2021/06/09 05:58:58;;;;;;;3.30;1.80;;;;;;;19.59;58.90;97693.13;1719694;82;21117;-63
2021/06/09 06:01:25;;;;;;;4.30;2.02;;;;;;;19.69;59.44;97686.91;1719823;82;21068;-64
2021/06/09 06:03:53;;;;;;;4.17;2.05;;;;;;;19.83;59.95;97686.69;1719955;82;21110;-63
2021/06/09 06:06:20;;;;;;;5.28;2.37;;;;;;;19.96;59.27;97691.08;1720072;82;21097;-63
2021/06/09 06:08:47;;;;;;;3.90;2.40;;;;;;;20.10;59.22;97691.34;1720047;81;21097;-62
2021/06/09 06:11:16;;;;;;;7.50;2.45;;;;;;;20.06;59.28;97694.10;1720092;82;21045;-66
2021/06/09 06:13:50;;;;;;;6.10;2.35;;;;;;;20.18;59.33;97702.98;1720169;82;21040;-68
2021/06/09 06:16:17;;;;;;;5.33;1.82;;;;;;;20.29;59.49;97701.53;1718575;82;21064;-65
2021/06/09 06:18:46;;;;;;;8.35;2.35;;;;;;;20.47;58.82;97699.50;1719839;82;21037;-63
2021/06/09 06:21:17;;;;;;;6.08;2.00;;;;;;;20.55;58.47;97707.17;1720210;82;21068;-63
2021/06/09 06:23:44;;;;;;;4.85;2.67;;;;;;;20.66;57.80;97706.52;1719764;82;21478;-63
2021/06/09 06:26:18;;;;;;;6.03;2.50;;;;;;;20.68;57.48;97704.46;1719721;82;21124;-63
2021/06/09 06:28:47;;;;;;;7.30;2.02;;;;;;;20.80;56.90;97702.77;1720100;82;21056;-63
2021/06/09 06:31:18;;;;;;;5.37;2.77;;;;;;;20.82;56.84;97702.02;1719840;82;21080;-64
2021/06/09 06:37:39;;;;;;;3.75;2.08;;;;;;;20.96;56.20;97703.56;1746473;79;21115;-63
2021/06/09 06:40:08;;;;;;;5.58;2.58;;;;;;;21.06;55.83;97705.71;1748546;82;21132;-63
2021/06/09 06:42:35;;;;;;;3.67;1.85;;;;;;;21.23;56.17;97705.00;1748614;82;21056;-63
2021/06/09 06:45:05;;;;;;;8.40;2.12;;;;;;;21.32;55.13;97704.73;1748583;82;21120;-63
2021/06/09 06:47:33;;;;;;;3.50;2.55;;;;;;;21.24;55.45;97702.63;1748427;82;20981;-63
2021/06/09 06:50:00;;;;;;;6.17;2.77;;;;;;;21.30;55.40;97703.62;1748492;82;21020;-63
2021/06/09 06:52:32;;;;;;;4.20;1.82;;;;;;;21.41;55.16;97698.94;1748419;81;21021;-63
2021/06/09 06:55:02;;;;;;;3.52;1.77;;;;;;;21.37;54.19;97703.04;1748330;82;21560;-63
2021/06/09 06:57:31;;;;;;;2.67;1.90;;;;;;;21.55;53.84;97702.28;1748390;81;21067;-63
2021/06/09 07:00:01;;;;;;;4.55;2.12;;;;;;;21.65;53.21;97699.93;1748447;81;21077;-63
2021/06/09 07:02:30;;;;;;;4.37;1.98;;;;;;;21.83;53.65;97693.31;1748480;82;21248;-63
2021/06/09 07:04:57;;;;;;;6.58;2.58;;;;;;;21.86;52.11;97696.05;1748521;81;21137;-64
2021/06/09 07:07:25;;;;;;;3.67;2.22;;;;;;;21.91;52.65;97695.70;1748011;82;20970;-63
2021/06/09 07:09:52;;;;;;;3.40;2.80;;;;;;;22.12;52.30;97687.33;1748292;81;21107;-64
2021/06/09 07:12:19;;;;;;;2.85;2.20;;;;;;;22.25;51.94;97687.14;1748510;82;21488;-64
2021/06/09 07:14:47;;;;;;;5.92;3.20;;;;;;;22.35;50.24;97680.01;1748129;81;21082;-64
2021/06/09 07:17:15;;;;;;;5.42;3.60;;;;;;;22.36;49.78;97682.95;1748470;82;21085;-67
2021/06/09 07:19:43;;;;;;;5.10;3.37;;;;;;;22.48;49.93;97678.52;1748575;82;21001;-66
2021/06/09 07:22:10;;;;;;;3.87;2.05;;;;;;;22.51;48.97;97667.98;1748407;82;21046;-64
2021/06/09 07:24:38;;;;;;;2.62;1.98;;;;;;;22.79;48.39;97676.67;1748377;82;21061;-64
2021/06/09 07:27:07;;;;;;;2.67;1.82;;;;;;;22.96;47.56;97669.16;1748004;82;21049;-67
2021/06/09 07:29:37;;;;;;;2.05;1.62;;;;;;;22.95;47.80;97671.53;1712198;83;21013;-65
2021/06/09 07:32:07;;;;;;;3.40;1.72;;;;;;;23.15;48.13;97674.64;1712421;84;21647;-67
2021/06/09 07:34:34;;;;;;;4.08;2.10;;;;;;;23.30;47.36;97674.21;1691855;85;21165;-67
2021/06/09 07:37:09;;;;;;;1.62;1.40;;;;;;;23.36;47.68;97674.59;1694297;83;21109;-68
2021/06/09 07:39:41;;;;;;;2.60;1.57;;;;;;;23.58;47.33;97669.02;1671135;85;21053;-67
2021/06/09 07:42:13;;;;;;;6.17;1.70;;;;;;;23.74;46.73;97670.67;1696172;83;21045;-67
2021/06/09 07:44:54;;;;;;;2.67;1.50;;;;;;;23.82;46.10;97671.12;1696281;83;21170;-67
2021/06/09 07:47:23;;;;;;;3.30;1.80;;;;;;;23.85;45.86;97675.95;1696137;83;21600;-64
2021/06/09 07:49:53;;;;;;;1.60;1.40;;;;;;;23.77;46.01;97671.03;1696151;83;21152;-67
2021/06/09 07:52:22;;;;;;;3.02;1.77;;;;;;;23.82;46.23;97673.77;1696028;85;21113;-67
2021/06/09 07:54:51;;;;;;;2.92;1.72;;;;;;;23.88;44.95;97674.18;1695206;85;21128;-67
2021/06/09 07:57:21;;;;;;;2.25;1.42;;;;;;;23.77;45.59;97674.20;1694763;83;21100;-68
2021/06/09 07:59:50;;;;;;;6.58;1.57;;;;;;;23.76;45.92;97676.56;1695645;85;21533;-67
2021/06/09 08:02:21;;;;;;;2.55;1.57;;;;;;;23.91;45.51;97668.92;1695433;83;21081;-68
2021/06/09 08:04:49;;;;;;;4.28;1.92;;;;;;;24.05;44.84;97674.23;1695635;85;21129;-68
2021/06/09 08:07:16;;;;;;;4.30;3.35;;;;;;;23.97;44.83;97666.13;1695728;85;21065;-68
2021/06/09 08:09:43;;;;;;;4.90;1.57;;;;;;;24.15;44.39;97669.69;1695762;83;21132;-68
2021/06/09 08:12:10;;;;;;;3.12;1.55;;;;;;;24.15;44.43;97672.34;1695842;84;21120;-67
2021/06/09 08:14:38;;;;;;;3.90;2.05;;;;;;;24.47;44.71;97676.15;1696012;84;21029;-68
2021/06/09 08:17:10;;;;;;;2.95;1.85;;;;;;;24.50;44.01;97673.82;1696094;85;21082;-68
2021/06/09 08:19:37;;;;;;;3.30;1.70;;;;;;;24.67;44.30;97674.38;1696180;85;21106;-68
2021/06/09 08:22:05;;;;;;;4.35;1.72;;;;;;;24.68;43.96;97679.44;1696713;84;21518;-68
2021/06/09 08:24:33;;;;;;;3.83;1.67;;;;;;;24.83;43.73;97674.89;1696856;83;21045;-65
2021/06/09 08:27:04;;;;;;;3.35;1.40;;;;;;;25.03;43.91;97679.25;1695775;83;21066;-65
2021/06/09 08:29:38;;;;;;;2.62;1.60;;;;;;;25.03;42.29;97675.27;1674007;85;27516;-65
2021/06/09 08:32:06;;;;;;;2.05;1.47;;;;;;;25.35;42.74;97676.30;1695810;85;21030;-65
2021/06/09 08:34:34;;;;;;;4.15;1.98;;;;;;;25.54;42.05;97673.40;1696165;85;21117;-65
2021/06/09 08:37:01;;;;;;;3.47;1.67;;;;;;;25.22;41.42;97680.61;1687192;84;21050;-65
2021/06/09 08:39:28;;;;;;;1.65;1.50;;;;;;;25.58;41.42;97682.50;1676549;85;21011;-65
2021/06/09 08:41:56;;;;;;;1.98;1.60;;;;;;;25.79;41.73;97679.88;1676706;85;21121;-66
2021/06/09 08:44:24;;;;;;;2.55;1.72;;;;;;;25.92;40.95;97672.84;1676471;85;21163;-65
2021/06/09 08:46:57;;;;;;;2.58;1.62;;;;;;;26.03;40.24;97678.31;1676549;85;21046;-66
2021/06/09 08:49:22;;;;;;;3.60;1.87;;;;;;;26.20;40.27;97681.72;1675199;85;21074;-66
2021/06/09 08:51:52;;;;;;;5.35;1.82;;;;;;;26.04;39.74;97671.39;1676630;85;21046;-66
2021/06/09 08:54:21;;;;;;;3.80;1.87;;;;;;;26.09;40.26;97674.64;1676277;85;21114;-65
2021/06/09 08:56:50;;;;;;;3.65;1.65;;;;;;;26.21;40.27;97668.70;1676257;86;21143;-65
2021/06/09 08:59:17;;;;;;;3.35;1.67;;;;;;;26.33;39.76;97674.17;1676706;85;21132;-65
2021/06/09 09:01:44;;;;;;;2.02;1.55;;;;;;;26.50;39.76;97665.29;1676636;85;21016;-65
2021/06/09 09:04:13;;;;;;;2.25;1.62;;;;;;;26.54;38.61;97663.17;1676226;86;21043;-64
2021/06/09 09:06:40;;;;;;;3.70;1.70;;;;;;;26.34;39.34;97661.66;1676380;86;21225;-64
2021/06/09 09:09:07;;;;;;;1.40;1.30;;;;;;;26.53;39.04;97657.59;1676366;85;21580;-65
2021/06/09 09:11:34;;;;;;;1.55;1.40;;;;;;;26.55;38.02;97658.66;1676425;85;21107;-64
2021/06/09 09:14:01;;;;;;;7.08;1.90;;;;;;;26.71;38.01;97649.76;1676599;85;21023;-64
2021/06/09 09:16:28;;;;;;;2.45;1.52;;;;;;;26.98;38.40;97651.88;1676805;85;21125;-66
2021/06/09 09:19:02;;;;;;;1.55;1.20;;;;;;;27.26;38.61;97644.90;1676662;85;21027;-65
2021/06/09 09:21:38;;;;;;;1.70;1.60;;;;;;;27.34;37.06;97638.28;1676837;85;21118;-64
2021/06/09 09:24:09;;;;;;;2.00;1.62;;;;;;;27.61;37.69;97652.34;1676741;85;21586;-64
2021/06/09 09:26:39;;;;;;;3.15;2.20;;;;;;;27.79;37.08;97648.41;1676495;85;21027;-65
2021/06/09 09:29:21;;;;;;;2.25;1.57;;;;;;;27.72;35.99;97649.98;1676611;85;21203;-65
2021/06/09 09:31:55;;;;;;;3.95;1.90;;;;;;;27.82;34.73;97650.02;1676563;85;21550;-65
2021/06/09 09:34:35;;;;;;;1.85;1.32;;;;;;;28.30;34.69;97644.08;1676585;85;21209;-64
2021/06/09 09:37:21;;;;;;;2.75;1.45;;;;;;;28.61;34.59;97650.27;1676550;84;21050;-64
2021/06/09 09:39:54;;;;;;;;;;;;;;;28.91;33.38;97641.52;1679045;86;21518;-65
2021/06/09 09:42:37;;;;;;;2.55;1.70;;;;;;;28.89;34.36;97648.45;1670290;85;20169;-64
2021/06/09 09:45:26;;;;;;;3.83;2.10;;;;;;;28.63;34.03;97644.14;1676338;85;21142;-64
2021/06/09 09:48:17;;;;;;;4.12;1.85;;;;;;;27.97;34.02;97643.96;1676472;85;21539;-65
2021/06/09 09:50:49;;;;;;;2.10;1.57;;;;;;;27.37;35.58;97640.42;1676655;85;21078;-66
2021/06/09 09:53:31;;;;;;;2.62;1.55;;;;;;;27.27;35.85;97638.52;1676681;85;21855;-66
2021/06/09 09:56:09;;;;;;;3.52;2.60;;;;;;;27.34;35.75;97633.75;1676644;85;21091;-66
2021/06/09 09:58:53;;;;;;;2.12;1.62;;;;;;;27.17;35.83;97631.77;1657050;85;21515;-66
2021/06/09 10:01:23;;;;;;;1.57;1.27;;;;;;;27.35;36.20;97630.00;1676392;85;21138;-66
2021/06/09 10:03:54;;;;;;;4.00;1.57;;;;;;;27.92;35.39;97625.78;1676726;85;21050;-66
2021/06/09 10:06:32;;;;;;;2.52;1.20;;;;;;;28.52;35.53;97624.61;1676681;85;21085;-66
2021/06/09 10:09:12;;;;;;;2.87;1.47;;;;;;;29.21;32.54;97622.23;1676695;85;21072;-65
2021/06/09 10:11:46;;;;;;;2.00;1.52;;;;;;;29.72;32.22;97611.42;1676702;85;21155;-65
2021/06/09 10:14:37;;;;;;;1.70;1.20;;;;;;;30.08;29.62;97609.39;1676308;86;21066;-63
2021/06/09 10:17:14;;;;;;;1.32;1.20;;;;;;;30.81;33.34;97604.92;1676623;85;21475;-67
2021/06/09 10:19:51;;;;;;;2.55;1.50;;;;;;;30.91;28.00;97600.80;1676581;85;21074;-67
2021/06/09 10:22:22;;;;;;;1.10;0.90;;;;;;;31.04;28.93;97604.75;1676561;85;21070;-66
2021/06/09 10:25:08;;;;;;;1.22;1.10;;;;;;;31.18;28.09;97601.64;1676549;85;21018;-67
2021/06/09 10:27:47;;;;;;;1.20;0.93;;;;;;;31.53;28.09;97601.84;1676422;85;21050;-65
2021/06/09 10:30:24;;;;;;;2.80;1.15;;;;;;;31.97;26.27;97595.66;1676455;85;21046;-65
2021/06/09 10:32:59;;;;;;;1.27;1.10;;;;;;;31.94;25.36;97596.24;1676453;85;21058;-66
2021/06/09 10:35:34;;;;;;;2.00;1.40;;;;;;;32.00;26.43;97587.02;1676866;85;21581;-65
2021/06/09 10:38:01;;;;;;;1.40;1.30;;;;;;;32.72;25.92;97588.16;1688204;84;21180;-65
2021/06/09 10:40:32;;;;;;;0.98;0.88;;;;;;;32.69;23.19;97582.80;1695833;85;21058;-66
2021/06/09 10:43:05;;;;;;;2.90;1.25;;;;;;;32.83;24.72;97590.93;1696282;83;21631;-65
2021/06/09 10:45:35;;;;;;;1.98;1.32;;;;;;;32.65;23.32;97579.11;1695996;85;21169;-65
2021/06/09 10:48:04;;;;;;;1.30;1.00;;;;;;;30.59;25.51;97576.41;1695961;83;21128;-64
2021/06/09 10:50:31;;;;;;;1.75;0.90;;;;;;;31.45;26.24;97569.69;1695980;85;21076;-65
2021/06/09 10:53:05;;;;;;;1.10;0.98;;;;;;;32.09;26.84;97567.59;1695712;85;21160;-65
2021/06/09 10:55:28;;;;;;;2.45;1.15;;;;;;;32.66;24.86;97562.44;1696214;83;21141;-65
2021/06/09 10:57:55;;;;;;;1.32;0.80;;;;;;;33.14;25.68;97551.66;1695923;85;21078;-65
2021/06/09 11:00:23;;;;;;;1.15;1.05;;;;;;;33.67;23.82;97544.44;1696055;85;21156;-66
2021/06/09 11:02:54;;;;;;;1.40;0.80;;;;;;;33.84;22.59;97556.20;1695938;85;21022;-65
2021/06/09 11:05:21;;;;;;;1.20;1.07;;;;;;;34.47;22.15;97549.14;1696159;85;21494;-65
2021/06/09 11:07:52;;;;;;;6.17;1.50;;;;;;;34.44;21.13;97544.34;1696104;84;21564;-66
2021/06/09 11:10:40;;;;;;;1.90;1.60;;;;;;;34.51;20.85;97544.18;1695965;84;21277;-64
2021/06/09 11:13:09;;;;;;;1.85;1.65;;;;;;;34.51;20.01;97539.33;1696286;83;21569;-66
2021/06/09 11:15:37;;;;;;;1.35;1.15;;;;;;;34.16;21.03;97541.75;1696281;85;21104;-68
2021/06/09 11:18:17;;;;;;;1.42;1.32;;;;;;;34.46;22.40;97541.59;1695781;85;21034;-64
2021/06/09 11:20:50;;;;;;;2.10;1.17;;;;;;;34.39;21.27;97541.78;1696358;85;21503;-65
2021/06/09 11:23:29;;;;;;;2.15;1.77;;;;;;;34.63;21.00;97536.88;1696221;85;21510;-65
2021/06/09 11:25:57;;;;;;;1.80;1.52;;;;;;;34.21;21.11;97532.75;1696153;85;21173;-65
2021/06/09 11:28:36;;;;;;;2.42;2.22;;;;;;;34.20;22.51;97533.88;1696222;83;21132;-65
2021/06/09 11:31:11;;;;;;;1.67;1.50;;;;;;;33.28;23.50;97526.89;1695819;85;21026;-65
2021/06/09 11:34:02;;;;;;;1.82;1.40;;;;;;;33.23;24.40;97524.30;1696247;84;21086;-65
2021/06/09 11:36:40;;;;;;;1.15;1.05;;;;;;;32.72;24.40;97523.09;1696073;85;21046;-65
2021/06/09 11:39:14;;;;;;;1.30;1.20;;;;;;;32.30;24.01;97523.20;1677731;84;21555;-65
2021/06/09 11:41:44;;;;;;;2.77;1.50;;;;;;;32.43;23.86;97519.23;1675761;85;21157;-65
2021/06/09 11:44:31;;;;;;;1.00;0.80;;;;;;;33.14;24.46;97508.63;1676727;85;21539;-65
2021/06/09 11:47:26;;;;;;;1.98;0.93;;;;;;;33.14;24.46;97508.63;1676204;85;21099;-65
2021/06/09 11:49:56;;;;;;;2.40;0.97;;;;;;;33.63;23.02;97513.25;1676706;85;21030;-65
2021/06/09 11:52:24;;;;;;;1.32;1.00;;;;;;;34.17;21.66;97515.05;1657039;85;21062;-65
2021/06/09 11:55:12;;;;;;;1.50;1.25;;;;;;;34.30;23.03;97522.84;1676674;85;21023;-65
2021/06/09 11:57:39;;;;;;;1.92;1.17;;;;;;;34.89;22.85;97523.55;1676406;85;21160;-67
2021/06/09 12:00:09;;;;;;;1.92;0.82;;;;;;;35.22;20.07;97516.17;1676515;85;21115;-64
2021/06/09 12:02:36;;;;;;;1.42;0.90;;;;;;;35.35;21.53;97527.98;1676573;85;21227;-63